sensor_id;sensor_type;location;lat;lon;timestamp;P1;durP1;ratioP1;P2;durP2;ratioP2
58250;SDS011;51449;51.676;5.812;2023-04-15T00:00:21;9.33;;;5.70;;
58250;SDS011;51449;51.676;5.812;2023-04-15T00:02:43;7.77;;;5.20;;
58250;SDS011;51449;51.676;5.812;2023-04-15T00:05:05;8.07;;;5.37;;
58250;SDS011;51449;51.676;5.812;2023-04-15T00:07:27;13.53;;;6.13;;
58250;SDS011;51449;51.676;5.812;2023-04-15T00:09:49;7.70;;;5.47;;
58250;SDS011;51449;51.676;5.812;2023-04-15T00:12:15;10.63;;;6.20;;
58250;SDS011;51449;51.676;5.812;2023-04-15T00:14:38;8.90;;;6.00;;
58250;SDS011;51449;51.676;5.812;2023-04-15T00:17:00;8.23;;;5.87;;
58250;SDS011;51449;51.676;5.812;2023-04-15T00:19:22;10.43;;;5.73;;
58250;SDS011;51449;51.676;5.812;2023-04-15T00:21:44;8.30;;;5.53;;
58250;SDS011;51449;51.676;5.812;2023-04-15T00:24:06;7.63;;;5.90;;
58250;SDS011;51449;51.676;5.812;2023-04-15T00:26:28;9.67;;;5.77;;
58250;SDS011;51449;51.676;5.812;2023-04-15T00:28:50;7.90;;;5.43;;
58250;SDS011;51449;51.676;5.812;2023-04-15T00:31:12;9.30;;;6.07;;
58250;SDS011;51449;51.676;5.812;2023-04-15T00:33:34;8.53;;;5.90;;
58250;SDS011;51449;51.676;5.812;2023-04-15T00:35:57;8.93;;;5.67;;
58250;SDS011;51449;51.676;5.812;2023-04-15T00:38:19;7.87;;;6.10;;
58250;SDS011;51449;51.676;5.812;2023-04-15T00:40:41;7.77;;;6.33;;
58250;SDS011;51449;51.676;5.812;2023-04-15T00:43:03;7.83;;;6.30;;
58250;SDS011;51449;51.676;5.812;2023-04-15T00:45:26;9.43;;;5.87;;
58250;SDS011;51449;51.676;5.812;2023-04-15T00:47:50;8.73;;;6.07;;
58250;SDS011;51449;51.676;5.812;2023-04-15T00:50:12;10.07;;;5.80;;
58250;SDS011;51449;51.676;5.812;2023-04-15T00:52:34;10.43;;;6.20;;
58250;SDS011;51449;51.676;5.812;2023-04-15T00:54:56;8.37;;;5.93;;
58250;SDS011;51449;51.676;5.812;2023-04-15T00:57:19;7.60;;;5.97;;
58250;SDS011;51449;51.676;5.812;2023-04-15T01:02:06;7.00;;;6.00;;
58250;SDS011;51449;51.676;5.812;2023-04-15T01:04:29;9.47;;;7.17;;
58250;SDS011;51449;51.676;5.812;2023-04-15T01:06:51;10.30;;;5.97;;
58250;SDS011;51449;51.676;5.812;2023-04-15T01:09:13;9.50;;;6.47;;
58250;SDS011;51449;51.676;5.812;2023-04-15T01:11:35;7.93;;;5.40;;
58250;SDS011;51449;51.676;5.812;2023-04-15T01:13:58;11.67;;;6.30;;
58250;SDS011;51449;51.676;5.812;2023-04-15T01:16:20;10.20;;;6.30;;
58250;SDS011;51449;51.676;5.812;2023-04-15T01:18:42;10.30;;;6.00;;
58250;SDS011;51449;51.676;5.812;2023-04-15T01:21:05;8.17;;;5.67;;
58250;SDS011;51449;51.676;5.812;2023-04-15T01:23:28;7.80;;;5.90;;
58250;SDS011;51449;51.676;5.812;2023-04-15T01:25:50;10.53;;;6.50;;
58250;SDS011;51449;51.676;5.812;2023-04-15T01:28:13;9.97;;;6.33;;
58250;SDS011;51449;51.676;5.812;2023-04-15T01:30:36;8.80;;;6.27;;
58250;SDS011;51449;51.676;5.812;2023-04-15T01:32:58;7.60;;;5.50;;
58250;SDS011;51449;51.676;5.812;2023-04-15T01:35:20;8.33;;;5.83;;
58250;SDS011;51449;51.676;5.812;2023-04-15T01:37:45;7.63;;;5.80;;
58250;SDS011;51449;51.676;5.812;2023-04-15T01:40:10;8.83;;;5.73;;
58250;SDS011;51449;51.676;5.812;2023-04-15T01:42:33;10.13;;;6.47;;
58250;SDS011;51449;51.676;5.812;2023-04-15T01:44:58;7.37;;;5.87;;
58250;SDS011;51449;51.676;5.812;2023-04-15T01:47:19;9.27;;;7.00;;
58250;SDS011;51449;51.676;5.812;2023-04-15T01:49:42;9.47;;;6.53;;
58250;SDS011;51449;51.676;5.812;2023-04-15T01:52:04;11.07;;;6.80;;
58250;SDS011;51449;51.676;5.812;2023-04-15T01:54:26;7.53;;;6.40;;
58250;SDS011;51449;51.676;5.812;2023-04-15T01:56:48;10.80;;;7.10;;
58250;SDS011;51449;51.676;5.812;2023-04-15T01:59:12;9.57;;;6.90;;
58250;SDS011;51449;51.676;5.812;2023-04-15T02:01:34;10.57;;;7.10;;
58250;SDS011;51449;51.676;5.812;2023-04-15T02:03:56;11.73;;;7.50;;
58250;SDS011;51449;51.676;5.812;2023-04-15T02:06:18;11.50;;;7.43;;
58250;SDS011;51449;51.676;5.812;2023-04-15T02:08:41;10.67;;;7.30;;
58250;SDS011;51449;51.676;5.812;2023-04-15T02:11:03;9.40;;;7.03;;
58250;SDS011;51449;51.676;5.812;2023-04-15T02:13:25;9.07;;;6.80;;
58250;SDS011;51449;51.676;5.812;2023-04-15T02:15:49;8.88;;;6.80;;
58250;SDS011;51449;51.676;5.812;2023-04-15T02:18:14;11.55;;;7.80;;
58250;SDS011;51449;51.676;5.812;2023-04-15T02:20:37;9.57;;;7.15;;
58250;SDS011;51449;51.676;5.812;2023-04-15T02:23:00;10.43;;;7.80;;
58250;SDS011;51449;51.676;5.812;2023-04-15T02:25:22;11.97;;;7.30;;
58250;SDS011;51449;51.676;5.812;2023-04-15T02:27:44;9.23;;;6.90;;
58250;SDS011;51449;51.676;5.812;2023-04-15T02:30:06;9.07;;;7.30;;
58250;SDS011;51449;51.676;5.812;2023-04-15T02:32:28;10.73;;;7.57;;
58250;SDS011;51449;51.676;5.812;2023-04-15T02:34:50;7.97;;;6.60;;
58250;SDS011;51449;51.676;5.812;2023-04-15T02:37:13;8.93;;;6.97;;
58250;SDS011;51449;51.676;5.812;2023-04-15T02:39:34;11.23;;;7.07;;
58250;SDS011;51449;51.676;5.812;2023-04-15T02:41:56;12.50;;;7.73;;
58250;SDS011;51449;51.676;5.812;2023-04-15T02:44:20;10.23;;;7.53;;
58250;SDS011;51449;51.676;5.812;2023-04-15T02:46:45;10.73;;;7.40;;
58250;SDS011;51449;51.676;5.812;2023-04-15T02:49:11;10.73;;;7.40;;
58250;SDS011;51449;51.676;5.812;2023-04-15T02:51:32;10.87;;;7.77;;
58250;SDS011;51449;51.676;5.812;2023-04-15T02:53:54;10.83;;;8.00;;
58250;SDS011;51449;51.676;5.812;2023-04-15T02:56:16;12.33;;;8.10;;
58250;SDS011;51449;51.676;5.812;2023-04-15T02:58:40;9.47;;;7.77;;
58250;SDS011;51449;51.676;5.812;2023-04-15T03:01:03;12.77;;;7.73;;
58250;SDS011;51449;51.676;5.812;2023-04-15T03:03:25;10.07;;;7.97;;
58250;SDS011;51449;51.676;5.812;2023-04-15T03:05:48;10.53;;;8.27;;
58250;SDS011;51449;51.676;5.812;2023-04-15T03:08:11;10.93;;;7.40;;
58250;SDS011;51449;51.676;5.812;2023-04-15T03:10:32;13.07;;;8.30;;
58250;SDS011;51449;51.676;5.812;2023-04-15T03:12:55;9.57;;;7.70;;
58250;SDS011;51449;51.676;5.812;2023-04-15T03:15:17;10.27;;;7.97;;
58250;SDS011;51449;51.676;5.812;2023-04-15T03:17:43;11.60;;;8.37;;
58250;SDS011;51449;51.676;5.812;2023-04-15T03:20:04;12.27;;;8.10;;
58250;SDS011;51449;51.676;5.812;2023-04-15T03:22:28;10.68;;;8.38;;
58250;SDS011;51449;51.676;5.812;2023-04-15T03:24:50;11.30;;;8.30;;
58250;SDS011;51449;51.676;5.812;2023-04-15T03:27:12;13.13;;;8.57;;
58250;SDS011;51449;51.676;5.812;2023-04-15T03:29:34;12.47;;;8.23;;
58250;SDS011;51449;51.676;5.812;2023-04-15T03:31:57;10.37;;;8.27;;
58250;SDS011;51449;51.676;5.812;2023-04-15T03:34:19;11.23;;;8.10;;
58250;SDS011;51449;51.676;5.812;2023-04-15T03:36:41;12.60;;;8.73;;
58250;SDS011;51449;51.676;5.812;2023-04-15T03:39:03;9.87;;;7.77;;
58250;SDS011;51449;51.676;5.812;2023-04-15T03:41:25;12.77;;;8.07;;
58250;SDS011;51449;51.676;5.812;2023-04-15T03:43:47;10.93;;;8.47;;
58250;SDS011;51449;51.676;5.812;2023-04-15T03:46:09;12.60;;;8.97;;
58250;SDS011;51449;51.676;5.812;2023-04-15T03:48:30;11.33;;;7.77;;
58250;SDS011;51449;51.676;5.812;2023-04-15T03:50:52;13.47;;;8.87;;
58250;SDS011;51449;51.676;5.812;2023-04-15T03:53:14;10.10;;;7.90;;
58250;SDS011;51449;51.676;5.812;2023-04-15T03:55:36;11.70;;;8.60;;
58250;SDS011;51449;51.676;5.812;2023-04-15T03:57:58;10.53;;;8.30;;
58250;SDS011;51449;51.676;5.812;2023-04-15T04:00:20;15.50;;;8.93;;
58250;SDS011;51449;51.676;5.812;2023-04-15T04:02:43;11.00;;;8.20;;
58250;SDS011;51449;51.676;5.812;2023-04-15T04:05:06;10.93;;;8.00;;
58250;SDS011;51449;51.676;5.812;2023-04-15T04:07:29;11.37;;;8.23;;
58250;SDS011;51449;51.676;5.812;2023-04-15T04:09:51;12.40;;;9.07;;
58250;SDS011;51449;51.676;5.812;2023-04-15T04:12:13;11.57;;;8.20;;
58250;SDS011;51449;51.676;5.812;2023-04-15T04:14:34;13.40;;;8.27;;
58250;SDS011;51449;51.676;5.812;2023-04-15T04:16:56;11.63;;;8.30;;
58250;SDS011;51449;51.676;5.812;2023-04-15T04:19:18;11.90;;;8.17;;
58250;SDS011;51449;51.676;5.812;2023-04-15T04:21:40;13.57;;;8.77;;
58250;SDS011;51449;51.676;5.812;2023-04-15T04:24:02;12.97;;;8.97;;
58250;SDS011;51449;51.676;5.812;2023-04-15T04:26:23;13.30;;;8.70;;
58250;SDS011;51449;51.676;5.812;2023-04-15T04:28:45;12.50;;;9.07;;
58250;SDS011;51449;51.676;5.812;2023-04-15T04:31:07;13.33;;;8.40;;
58250;SDS011;51449;51.676;5.812;2023-04-15T04:33:29;11.33;;;9.00;;
58250;SDS011;51449;51.676;5.812;2023-04-15T04:35:51;11.77;;;9.27;;
58250;SDS011;51449;51.676;5.812;2023-04-15T04:38:12;11.13;;;9.07;;
58250;SDS011;51449;51.676;5.812;2023-04-15T04:40:34;13.27;;;8.07;;
58250;SDS011;51449;51.676;5.812;2023-04-15T04:42:57;11.50;;;9.50;;
58250;SDS011;51449;51.676;5.812;2023-04-15T04:45:19;12.33;;;9.20;;
58250;SDS011;51449;51.676;5.812;2023-04-15T04:47:41;13.47;;;9.73;;
58250;SDS011;51449;51.676;5.812;2023-04-15T04:50:03;11.43;;;9.57;;
58250;SDS011;51449;51.676;5.812;2023-04-15T04:52:25;12.40;;;8.90;;
58250;SDS011;51449;51.676;5.812;2023-04-15T04:54:47;13.03;;;9.03;;
58250;SDS011;51449;51.676;5.812;2023-04-15T04:57:09;13.73;;;8.93;;
58250;SDS011;51449;51.676;5.812;2023-04-15T04:59:31;13.17;;;9.50;;
58250;SDS011;51449;51.676;5.812;2023-04-15T05:01:53;14.37;;;9.30;;
58250;SDS011;51449;51.676;5.812;2023-04-15T05:04:16;15.23;;;10.17;;
58250;SDS011;51449;51.676;5.812;2023-04-15T05:06:38;12.30;;;8.90;;
58250;SDS011;51449;51.676;5.812;2023-04-15T05:09:01;14.23;;;9.23;;
58250;SDS011;51449;51.676;5.812;2023-04-15T05:11:24;13.80;;;9.23;;
58250;SDS011;51449;51.676;5.812;2023-04-15T05:13:46;12.50;;;9.13;;
58250;SDS011;51449;51.676;5.812;2023-04-15T05:16:09;11.77;;;8.80;;
58250;SDS011;51449;51.676;5.812;2023-04-15T05:18:32;13.70;;;9.15;;
58250;SDS011;51449;51.676;5.812;2023-04-15T05:20:55;14.73;;;9.23;;
58250;SDS011;51449;51.676;5.812;2023-04-15T05:23:17;11.07;;;8.97;;
58250;SDS011;51449;51.676;5.812;2023-04-15T05:25:40;12.63;;;9.33;;
58250;SDS011;51449;51.676;5.812;2023-04-15T05:28:02;14.23;;;9.37;;
58250;SDS011;51449;51.676;5.812;2023-04-15T05:30:24;10.97;;;8.90;;
58250;SDS011;51449;51.676;5.812;2023-04-15T05:32:47;12.43;;;9.10;;
58250;SDS011;51449;51.676;5.812;2023-04-15T05:35:09;13.27;;;9.47;;
58250;SDS011;51449;51.676;5.812;2023-04-15T05:37:31;14.40;;;9.60;;
58250;SDS011;51449;51.676;5.812;2023-04-15T05:39:53;13.17;;;9.93;;
58250;SDS011;51449;51.676;5.812;2023-04-15T05:42:15;14.20;;;9.87;;
58250;SDS011;51449;51.676;5.812;2023-04-15T05:44:38;13.77;;;10.17;;
58250;SDS011;51449;51.676;5.812;2023-04-15T05:47:00;11.97;;;9.20;;
58250;SDS011;51449;51.676;5.812;2023-04-15T05:49:24;12.48;;;10.02;;
58250;SDS011;51449;51.676;5.812;2023-04-15T05:51:47;12.73;;;9.73;;
58250;SDS011;51449;51.676;5.812;2023-04-15T05:54:09;13.30;;;9.87;;
58250;SDS011;51449;51.676;5.812;2023-04-15T05:56:31;12.10;;;9.10;;
58250;SDS011;51449;51.676;5.812;2023-04-15T05:58:54;12.47;;;9.80;;
58250;SDS011;51449;51.676;5.812;2023-04-15T06:01:16;14.17;;;9.77;;
58250;SDS011;51449;51.676;5.812;2023-04-15T06:03:39;15.77;;;10.47;;
58250;SDS011;51449;51.676;5.812;2023-04-15T06:06:01;13.77;;;9.60;;
58250;SDS011;51449;51.676;5.812;2023-04-15T06:08:23;12.77;;;10.27;;
58250;SDS011;51449;51.676;5.812;2023-04-15T06:10:45;16.23;;;10.80;;
58250;SDS011;51449;51.676;5.812;2023-04-15T06:13:07;12.70;;;9.97;;
58250;SDS011;51449;51.676;5.812;2023-04-15T06:15:29;17.00;;;11.43;;
58250;SDS011;51449;51.676;5.812;2023-04-15T06:17:51;15.10;;;10.07;;
58250;SDS011;51449;51.676;5.812;2023-04-15T06:20:13;14.37;;;10.50;;
58250;SDS011;51449;51.676;5.812;2023-04-15T06:22:35;14.17;;;10.37;;
58250;SDS011;51449;51.676;5.812;2023-04-15T06:24:58;14.90;;;10.70;;
58250;SDS011;51449;51.676;5.812;2023-04-15T06:27:19;13.97;;;10.37;;
58250;SDS011;51449;51.676;5.812;2023-04-15T06:29:43;15.47;;;10.83;;
58250;SDS011;51449;51.676;5.812;2023-04-15T06:32:05;15.23;;;10.90;;
58250;SDS011;51449;51.676;5.812;2023-04-15T06:34:27;15.33;;;11.23;;
58250;SDS011;51449;51.676;5.812;2023-04-15T06:36:48;16.07;;;11.80;;
58250;SDS011;51449;51.676;5.812;2023-04-15T06:39:10;15.40;;;10.60;;
58250;SDS011;51449;51.676;5.812;2023-04-15T06:41:32;15.27;;;10.80;;
58250;SDS011;51449;51.676;5.812;2023-04-15T06:43:54;15.50;;;11.77;;
58250;SDS011;51449;51.676;5.812;2023-04-15T06:46:16;16.03;;;11.27;;
58250;SDS011;51449;51.676;5.812;2023-04-15T06:48:37;15.27;;;11.40;;
58250;SDS011;51449;51.676;5.812;2023-04-15T06:50:59;15.27;;;11.53;;
58250;SDS011;51449;51.676;5.812;2023-04-15T06:53:21;15.87;;;10.80;;
58250;SDS011;51449;51.676;5.812;2023-04-15T06:55:43;13.70;;;10.43;;
58250;SDS011;51449;51.676;5.812;2023-04-15T06:58:05;15.30;;;11.03;;
58250;SDS011;51449;51.676;5.812;2023-04-15T07:00:26;17.20;;;11.90;;
58250;SDS011;51449;51.676;5.812;2023-04-15T07:02:49;14.60;;;10.77;;
58250;SDS011;51449;51.676;5.812;2023-04-15T07:05:11;15.57;;;10.83;;
58250;SDS011;51449;51.676;5.812;2023-04-15T07:07:33;18.17;;;11.57;;
58250;SDS011;51449;51.676;5.812;2023-04-15T07:09:55;16.70;;;11.47;;
58250;SDS011;51449;51.676;5.812;2023-04-15T07:12:17;15.70;;;11.47;;
58250;SDS011;51449;51.676;5.812;2023-04-15T07:14:39;16.33;;;12.30;;
58250;SDS011;51449;51.676;5.812;2023-04-15T07:17:00;14.53;;;11.23;;
58250;SDS011;51449;51.676;5.812;2023-04-15T07:19:23;16.87;;;11.37;;
58250;SDS011;51449;51.676;5.812;2023-04-15T07:21:45;14.63;;;10.40;;
58250;SDS011;51449;51.676;5.812;2023-04-15T07:24:07;15.23;;;10.57;;
58250;SDS011;51449;51.676;5.812;2023-04-15T07:26:30;14.40;;;10.97;;
58250;SDS011;51449;51.676;5.812;2023-04-15T07:28:52;14.87;;;9.90;;
58250;SDS011;51449;51.676;5.812;2023-04-15T07:31:14;14.03;;;9.23;;
58250;SDS011;51449;51.676;5.812;2023-04-15T07:33:36;14.57;;;9.53;;
58250;SDS011;51449;51.676;5.812;2023-04-15T07:35:58;13.07;;;9.33;;
58250;SDS011;51449;51.676;5.812;2023-04-15T07:38:20;12.73;;;9.30;;
58250;SDS011;51449;51.676;5.812;2023-04-15T07:40:42;12.63;;;9.23;;
58250;SDS011;51449;51.676;5.812;2023-04-15T07:43:04;13.37;;;10.13;;
58250;SDS011;51449;51.676;5.812;2023-04-15T07:45:26;12.63;;;9.20;;
58250;SDS011;51449;51.676;5.812;2023-04-15T07:47:48;15.60;;;10.97;;
58250;SDS011;51449;51.676;5.812;2023-04-15T07:50:11;15.47;;;9.70;;
58250;SDS011;51449;51.676;5.812;2023-04-15T07:52:32;14.10;;;9.43;;
58250;SDS011;51449;51.676;5.812;2023-04-15T07:54:59;14.00;;;9.87;;
58250;SDS011;51449;51.676;5.812;2023-04-15T07:57:21;11.93;;;9.03;;
58250;SDS011;51449;51.676;5.812;2023-04-15T07:59:42;13.53;;;9.60;;
58250;SDS011;51449;51.676;5.812;2023-04-15T08:02:04;13.77;;;10.30;;
58250;SDS011;51449;51.676;5.812;2023-04-15T08:04:26;13.90;;;9.83;;
58250;SDS011;51449;51.676;5.812;2023-04-15T08:06:48;13.33;;;10.03;;
58250;SDS011;51449;51.676;5.812;2023-04-15T08:09:10;13.23;;;8.70;;
58250;SDS011;51449;51.676;5.812;2023-04-15T08:11:32;11.83;;;9.23;;
58250;SDS011;51449;51.676;5.812;2023-04-15T08:13:54;12.73;;;8.57;;
58250;SDS011;51449;51.676;5.812;2023-04-15T08:16:16;11.90;;;7.97;;
58250;SDS011;51449;51.676;5.812;2023-04-15T08:18:44;8.90;;;6.63;;
58250;SDS011;51449;51.676;5.812;2023-04-15T08:21:07;9.65;;;7.25;;
58250;SDS011;51449;51.676;5.812;2023-04-15T08:23:29;10.77;;;7.17;;
58250;SDS011;51449;51.676;5.812;2023-04-15T08:25:53;10.53;;;7.43;;
58250;SDS011;51449;51.676;5.812;2023-04-15T08:28:14;9.77;;;7.13;;
58250;SDS011;51449;51.676;5.812;2023-04-15T08:30:37;10.07;;;7.27;;
58250;SDS011;51449;51.676;5.812;2023-04-15T08:32:59;9.87;;;7.87;;
58250;SDS011;51449;51.676;5.812;2023-04-15T08:35:21;10.70;;;7.40;;
58250;SDS011;51449;51.676;5.812;2023-04-15T08:37:42;10.77;;;7.30;;
58250;SDS011;51449;51.676;5.812;2023-04-15T08:40:04;10.10;;;6.63;;
58250;SDS011;51449;51.676;5.812;2023-04-15T08:42:29;8.87;;;6.77;;
58250;SDS011;51449;51.676;5.812;2023-04-15T08:44:58;10.30;;;6.70;;
58250;SDS011;51449;51.676;5.812;2023-04-15T08:47:22;7.90;;;5.90;;
58250;SDS011;51449;51.676;5.812;2023-04-15T08:49:51;8.73;;;5.97;;
58250;SDS011;51449;51.676;5.812;2023-04-15T08:52:15;7.50;;;5.60;;
58250;SDS011;51449;51.676;5.812;2023-04-15T08:54:37;7.10;;;5.63;;
58250;SDS011;51449;51.676;5.812;2023-04-15T08:57:00;7.00;;;4.90;;
58250;SDS011;51449;51.676;5.812;2023-04-15T08:59:22;7.03;;;5.20;;
58250;SDS011;51449;51.676;5.812;2023-04-15T09:01:44;8.17;;;5.60;;
58250;SDS011;51449;51.676;5.812;2023-04-15T09:04:06;6.33;;;5.03;;
58250;SDS011;51449;51.676;5.812;2023-04-15T09:06:29;6.60;;;5.30;;
58250;SDS011;51449;51.676;5.812;2023-04-15T09:08:51;7.87;;;5.37;;
58250;SDS011;51449;51.676;5.812;2023-04-15T09:11:13;6.43;;;4.77;;
58250;SDS011;51449;51.676;5.812;2023-04-15T09:13:35;6.53;;;4.67;;
58250;SDS011;51449;51.676;5.812;2023-04-15T09:15:57;6.57;;;4.90;;
58250;SDS011;51449;51.676;5.812;2023-04-15T09:18:28;6.97;;;4.90;;
58250;SDS011;51449;51.676;5.812;2023-04-15T09:20:52;4.40;;;3.87;;
58250;SDS011;51449;51.676;5.812;2023-04-15T09:23:14;5.00;;;3.93;;
58250;SDS011;51449;51.676;5.812;2023-04-15T09:25:37;5.83;;;4.50;;
58250;SDS011;51449;51.676;5.812;2023-04-15T09:28:02;5.00;;;4.40;;
58250;SDS011;51449;51.676;5.812;2023-04-15T09:30:25;5.63;;;4.30;;
58250;SDS011;51449;51.676;5.812;2023-04-15T09:32:49;7.05;;;4.88;;
58250;SDS011;51449;51.676;5.812;2023-04-15T09:35:14;6.20;;;3.90;;
58250;SDS011;51449;51.676;5.812;2023-04-15T09:37:36;5.23;;;3.60;;
58250;SDS011;51449;51.676;5.812;2023-04-15T09:39:57;5.47;;;3.83;;
58250;SDS011;51449;51.676;5.812;2023-04-15T09:42:19;4.30;;;3.43;;
58250;SDS011;51449;51.676;5.812;2023-04-15T09:44:45;4.40;;;3.73;;
58250;SDS011;51449;51.676;5.812;2023-04-15T09:47:06;4.43;;;3.60;;
58250;SDS011;51449;51.676;5.812;2023-04-15T09:49:28;3.50;;;3.03;;
58250;SDS011;51449;51.676;5.812;2023-04-15T09:51:50;3.30;;;3.00;;
58250;SDS011;51449;51.676;5.812;2023-04-15T09:54:32;3.93;;;2.87;;
58250;SDS011;51449;51.676;5.812;2023-04-15T09:57:03;3.97;;;3.00;;
58250;SDS011;51449;51.676;5.812;2023-04-15T09:59:26;3.47;;;2.93;;
58250;SDS011;51449;51.676;5.812;2023-04-15T10:01:48;4.83;;;3.27;;
58250;SDS011;51449;51.676;5.812;2023-04-15T10:04:10;4.93;;;3.50;;
58250;SDS011;51449;51.676;5.812;2023-04-15T10:06:33;4.17;;;3.10;;
58250;SDS011;51449;51.676;5.812;2023-04-15T10:08:56;3.97;;;3.23;;
58250;SDS011;51449;51.676;5.812;2023-04-15T10:11:19;5.47;;;2.77;;
58250;SDS011;51449;51.676;5.812;2023-04-15T10:13:44;4.27;;;3.20;;
58250;SDS011;51449;51.676;5.812;2023-04-15T10:18:35;4.60;;;3.47;;
58250;SDS011;51449;51.676;5.812;2023-04-15T10:21:02;4.23;;;3.10;;
58250;SDS011;51449;51.676;5.812;2023-04-15T10:23:26;3.60;;;2.87;;
58250;SDS011;51449;51.676;5.812;2023-04-15T10:25:48;4.60;;;2.80;;
58250;SDS011;51449;51.676;5.812;2023-04-15T10:28:15;3.40;;;3.10;;
58250;SDS011;51449;51.676;5.812;2023-04-15T10:30:37;3.37;;;3.00;;
58250;SDS011;51449;51.676;5.812;2023-04-15T10:33:02;4.00;;;3.00;;
58250;SDS011;51449;51.676;5.812;2023-04-15T10:35:27;5.20;;;4.23;;
58250;SDS011;51449;51.676;5.812;2023-04-15T10:37:51;4.23;;;3.53;;
58250;SDS011;51449;51.676;5.812;2023-04-15T10:40:25;5.60;;;3.73;;
58250;SDS011;51449;51.676;5.812;2023-04-15T10:42:54;5.17;;;3.40;;
58250;SDS011;51449;51.676;5.812;2023-04-15T10:45:17;4.13;;;3.43;;
58250;SDS011;51449;51.676;5.812;2023-04-15T10:47:39;4.60;;;3.40;;
58250;SDS011;51449;51.676;5.812;2023-04-15T10:52:26;5.07;;;3.67;;
58250;SDS011;51449;51.676;5.812;2023-04-15T10:54:49;4.43;;;3.30;;
58250;SDS011;51449;51.676;5.812;2023-04-15T10:57:36;4.73;;;2.90;;
58250;SDS011;51449;51.676;5.812;2023-04-15T11:00:02;4.97;;;3.03;;
58250;SDS011;51449;51.676;5.812;2023-04-15T11:05:14;3.77;;;3.03;;
58250;SDS011;51449;51.676;5.812;2023-04-15T11:12:34;4.17;;;3.23;;
58250;SDS011;51449;51.676;5.812;2023-04-15T11:14:57;3.90;;;3.33;;
58250;SDS011;51449;51.676;5.812;2023-04-15T11:17:26;4.30;;;2.77;;
58250;SDS011;51449;51.676;5.812;2023-04-15T11:19:49;4.33;;;2.67;;
58250;SDS011;51449;51.676;5.812;2023-04-15T11:22:11;3.40;;;2.83;;
58250;SDS011;51449;51.676;5.812;2023-04-15T11:24:33;3.40;;;3.10;;
58250;SDS011;51449;51.676;5.812;2023-04-15T11:26:58;3.87;;;2.63;;
58250;SDS011;51449;51.676;5.812;2023-04-15T11:29:22;4.60;;;3.10;;
58250;SDS011;51449;51.676;5.812;2023-04-15T11:31:51;4.33;;;2.80;;
58250;SDS011;51449;51.676;5.812;2023-04-15T11:34:13;3.73;;;3.20;;
58250;SDS011;51449;51.676;5.812;2023-04-15T11:36:43;2.90;;;2.70;;
58250;SDS011;51449;51.676;5.812;2023-04-15T11:39:05;3.30;;;2.80;;
58250;SDS011;51449;51.676;5.812;2023-04-15T11:41:27;3.37;;;2.90;;
58250;SDS011;51449;51.676;5.812;2023-04-15T11:43:49;4.03;;;2.90;;
58250;SDS011;51449;51.676;5.812;2023-04-15T11:46:12;3.63;;;3.23;;
58250;SDS011;51449;51.676;5.812;2023-04-15T11:48:34;4.03;;;2.87;;
58250;SDS011;51449;51.676;5.812;2023-04-15T11:51:01;4.40;;;3.07;;
58250;SDS011;51449;51.676;5.812;2023-04-15T11:56:18;3.63;;;3.10;;
58250;SDS011;51449;51.676;5.812;2023-04-15T11:58:42;4.33;;;2.87;;
58250;SDS011;51449;51.676;5.812;2023-04-15T12:01:05;2.97;;;2.50;;
58250;SDS011;51449;51.676;5.812;2023-04-15T12:03:28;4.07;;;2.30;;
58250;SDS011;51449;51.676;5.812;2023-04-15T12:06:11;3.20;;;2.57;;
58250;SDS011;51449;51.676;5.812;2023-04-15T12:08:48;4.13;;;2.50;;
58250;SDS011;51449;51.676;5.812;2023-04-15T12:11:16;2.80;;;2.50;;
58250;SDS011;51449;51.676;5.812;2023-04-15T12:13:43;4.00;;;2.20;;
58250;SDS011;51449;51.676;5.812;2023-04-15T12:16:07;3.83;;;2.20;;
58250;SDS011;51449;51.676;5.812;2023-04-15T12:18:29;2.93;;;2.47;;
58250;SDS011;51449;51.676;5.812;2023-04-15T12:20:50;3.63;;;2.60;;
58250;SDS011;51449;51.676;5.812;2023-04-15T12:23:12;3.90;;;2.53;;
58250;SDS011;51449;51.676;5.812;2023-04-15T12:25:40;2.77;;;2.10;;
58250;SDS011;51449;51.676;5.812;2023-04-15T12:28:09;3.27;;;1.97;;
58250;SDS011;51449;51.676;5.812;2023-04-15T12:30:32;3.90;;;2.00;;
58250;SDS011;51449;51.676;5.812;2023-04-15T12:32:54;2.80;;;1.93;;
58250;SDS011;51449;51.676;5.812;2023-04-15T12:35:16;5.00;;;2.07;;
58250;SDS011;51449;51.676;5.812;2023-04-15T12:37:41;3.13;;;2.40;;
58250;SDS011;51449;51.676;5.812;2023-04-15T12:40:03;3.30;;;2.47;;
58250;SDS011;51449;51.676;5.812;2023-04-15T12:42:29;4.47;;;2.20;;
58250;SDS011;51449;51.676;5.812;2023-04-15T12:44:50;2.83;;;2.20;;
58250;SDS011;51449;51.676;5.812;2023-04-15T12:47:12;2.90;;;1.80;;
58250;SDS011;51449;51.676;5.812;2023-04-15T12:49:34;2.97;;;2.07;;
58250;SDS011;51449;51.676;5.812;2023-04-15T12:51:57;2.77;;;1.57;;
58250;SDS011;51449;51.676;5.812;2023-04-15T12:54:21;2.08;;;1.70;;
58250;SDS011;51449;51.676;5.812;2023-04-15T12:56:44;2.77;;;1.53;;
58250;SDS011;51449;51.676;5.812;2023-04-15T12:59:08;2.77;;;1.57;;
58250;SDS011;51449;51.676;5.812;2023-04-15T13:01:30;1.80;;;1.53;;
58250;SDS011;51449;51.676;5.812;2023-04-15T13:03:52;1.77;;;1.53;;
58250;SDS011;51449;51.676;5.812;2023-04-15T13:06:14;2.63;;;2.10;;
58250;SDS011;51449;51.676;5.812;2023-04-15T13:08:36;2.47;;;1.60;;
58250;SDS011;51449;51.676;5.812;2023-04-15T13:11:05;2.57;;;1.50;;
58250;SDS011;51449;51.676;5.812;2023-04-15T13:13:27;1.50;;;1.30;;
58250;SDS011;51449;51.676;5.812;2023-04-15T13:15:49;1.40;;;1.20;;
58250;SDS011;51449;51.676;5.812;2023-04-15T13:18:11;2.87;;;1.77;;
58250;SDS011;51449;51.676;5.812;2023-04-15T13:20:33;1.70;;;1.60;;
58250;SDS011;51449;51.676;5.812;2023-04-15T13:22:55;2.83;;;1.90;;
58250;SDS011;51449;51.676;5.812;2023-04-15T13:25:17;2.63;;;2.07;;
58250;SDS011;51449;51.676;5.812;2023-04-15T13:27:39;2.83;;;2.43;;
58250;SDS011;51449;51.676;5.812;2023-04-15T13:30:01;2.30;;;2.07;;
58250;SDS011;51449;51.676;5.812;2023-04-15T13:32:24;3.47;;;2.20;;
58250;SDS011;51449;51.676;5.812;2023-04-15T13:34:46;2.67;;;2.30;;
58250;SDS011;51449;51.676;5.812;2023-04-15T13:37:08;3.60;;;2.50;;
58250;SDS011;51449;51.676;5.812;2023-04-15T13:39:30;2.90;;;2.13;;
58250;SDS011;51449;51.676;5.812;2023-04-15T13:41:52;3.23;;;2.23;;
58250;SDS011;51449;51.676;5.812;2023-04-15T13:44:14;2.83;;;1.83;;
58250;SDS011;51449;51.676;5.812;2023-04-15T13:46:35;3.03;;;2.10;;
58250;SDS011;51449;51.676;5.812;2023-04-15T13:48:59;2.50;;;1.70;;
58250;SDS011;51449;51.676;5.812;2023-04-15T13:51:21;1.97;;;1.60;;
58250;SDS011;51449;51.676;5.812;2023-04-15T13:53:43;1.47;;;1.30;;
58250;SDS011;51449;51.676;5.812;2023-04-15T13:56:06;1.67;;;1.40;;
58250;SDS011;51449;51.676;5.812;2023-04-15T13:58:29;1.55;;;1.10;;
58250;SDS011;51449;51.676;5.812;2023-04-15T14:00:51;1.83;;;1.10;;
58250;SDS011;51449;51.676;5.812;2023-04-15T14:03:13;2.10;;;1.70;;
58250;SDS011;51449;51.676;5.812;2023-04-15T14:05:36;1.53;;;1.43;;
58250;SDS011;51449;51.676;5.812;2023-04-15T14:07:58;2.57;;;1.20;;
58250;SDS011;51449;51.676;5.812;2023-04-15T14:10:20;1.97;;;1.40;;
58250;SDS011;51449;51.676;5.812;2023-04-15T14:12:42;2.07;;;1.40;;
58250;SDS011;51449;51.676;5.812;2023-04-15T14:15:04;1.73;;;1.10;;
58250;SDS011;51449;51.676;5.812;2023-04-15T14:17:27;1.77;;;1.30;;
58250;SDS011;51449;51.676;5.812;2023-04-15T14:19:49;1.37;;;1.07;;
58250;SDS011;51449;51.676;5.812;2023-04-15T14:22:11;2.47;;;1.30;;
58250;SDS011;51449;51.676;5.812;2023-04-15T14:24:34;1.70;;;1.20;;
58250;SDS011;51449;51.676;5.812;2023-04-15T14:26:57;1.73;;;1.40;;
58250;SDS011;51449;51.676;5.812;2023-04-15T14:29:20;1.40;;;1.30;;
58250;SDS011;51449;51.676;5.812;2023-04-15T14:31:43;1.30;;;1.20;;